createdAt,value
2022-10-07T00:00:51.742Z,9.15
2022-10-07T00:01:54.473Z,15.70
2022-10-07T00:02:56.937Z,13.48
2022-10-07T00:03:59.466Z,16.98
2022-10-07T00:05:02.109Z,15.25
2022-10-07T00:06:07.135Z,11.55
2022-10-07T00:07:09.608Z,10.63
2022-10-07T00:08:12.352Z,10.77
2022-10-07T00:09:15.185Z,9.10
2022-10-07T00:10:17.992Z,10.55
2022-10-07T00:11:28.281Z,8.45
2022-10-07T00:12:30.860Z,12.57
2022-10-07T00:13:33.752Z,12.23
2022-10-07T00:14:36.331Z,8.43
2022-10-07T00:15:39.283Z,11.38
2022-10-07T00:16:42.281Z,12.30
2022-10-07T00:17:45.585Z,10.50
2022-10-07T00:18:48.686Z,14.63
2022-10-07T00:19:51.265Z,11.38
2022-10-07T00:20:53.839Z,11.00
2022-10-07T00:21:56.352Z,13.15
2022-10-07T00:22:59.556Z,13.32
2022-10-07T00:24:02.642Z,9.55
2022-10-07T00:25:05.546Z,16.42
2022-10-07T00:26:10.203Z,10.55
2022-10-07T00:27:13.098Z,12.27
2022-10-07T00:28:15.718Z,12.38
2022-10-07T00:29:18.780Z,11.63
2022-10-07T00:30:21.303Z,14.85
2022-10-07T00:31:26.008Z,12.40
2022-10-07T00:32:28.656Z,13.02
2022-10-07T00:33:33.174Z,13.18
2022-10-07T00:34:35.893Z,9.27
2022-10-07T00:35:38.422Z,11.77
2022-10-07T00:36:43.498Z,13.35
2022-10-07T00:37:46.572Z,11.45
2022-10-07T00:39:00.546Z,12.57
2022-10-07T00:40:03.152Z,9.80
2022-10-07T00:41:07.136Z,14.82
2022-10-07T00:42:13.245Z,13.10
2022-10-07T00:43:24.376Z,12.95
2022-10-07T00:44:32.771Z,11.65
2022-10-07T00:45:36.033Z,11.25
2022-10-07T00:46:41.683Z,12.63
2022-10-07T00:47:46.477Z,10.65
2022-10-07T00:48:49.845Z,13.68
2022-10-07T00:50:02.292Z,11.88
2022-10-07T00:51:04.958Z,10.35
2022-10-07T00:52:08.705Z,9.77
2022-10-07T00:53:11.353Z,12.13
2022-10-07T00:54:16.390Z,11.02
2022-10-07T00:55:22.712Z,14.02
2022-10-07T00:56:26.501Z,16.30
2022-10-07T00:57:30.017Z,12.57
2022-10-07T00:58:36.258Z,16.42
2022-10-07T00:59:40.200Z,18.92
2022-10-07T01:00:43.949Z,11.43
2022-10-07T01:01:47.693Z,12.50
2022-10-07T01:02:50.972Z,10.93
2022-10-07T01:03:54.614Z,15.93
2022-10-07T01:04:59.551Z,11.73
2022-10-07T01:06:03.968Z,12.15
2022-10-07T01:07:08.039Z,16.63
2022-10-07T01:08:10.465Z,13.20
2022-10-07T01:09:13.504Z,18.10
2022-10-07T01:10:20.344Z,11.82
2022-10-07T01:11:44.754Z,14.35
2022-10-07T01:13:07.795Z,16.40
2022-10-07T01:14:29.343Z,12.23
2022-10-07T01:15:55.203Z,20.73
2022-10-07T01:17:12.788Z,14.93
2022-10-07T01:18:42.464Z,13.10
2022-10-07T01:20:17.040Z,13.30
2022-10-07T01:21:34.327Z,14.52
2022-10-07T01:22:39.817Z,15.48
2022-10-07T01:23:48.271Z,14.13
2022-10-07T01:25:13.365Z,16.38
2022-10-07T01:26:54.156Z,15.73
2022-10-07T01:28:03.418Z,16.10
2022-10-07T01:29:18.804Z,15.63
2022-10-07T01:30:22.536Z,16.77
2022-10-07T01:31:33.514Z,14.80
2022-10-07T01:32:41.082Z,15.25
2022-10-07T01:33:44.888Z,17.52
2022-10-07T01:34:48.164Z,15.68
2022-10-07T01:35:52.054Z,14.25
2022-10-07T01:36:55.918Z,16.77
2022-10-07T01:38:01.999Z,14.82
2022-10-07T01:39:09.116Z,21.30
2022-10-07T01:40:16.059Z,13.20
2022-10-07T01:41:21.322Z,12.27
2022-10-07T01:42:26.322Z,17.35
2022-10-07T01:43:28.911Z,14.73
2022-10-07T01:44:33.302Z,14.60
2022-10-07T01:45:39.623Z,17.90
2022-10-07T01:46:43.621Z,17.02
2022-10-07T01:47:46.830Z,18.55
2022-10-07T01:48:51.865Z,14.55
2022-10-07T01:49:55.039Z,15.30
2022-10-07T01:50:59.825Z,14.75
2022-10-07T01:52:26.389Z,15.27
2022-10-07T01:54:08.439Z,14.77
2022-10-07T01:55:38.407Z,14.38
2022-10-07T01:57:14.839Z,14.30
2022-10-07T01:58:45.592Z,16.48
2022-10-07T02:00:05.563Z,16.70
2022-10-07T02:01:37.465Z,16.90
2022-10-07T02:02:51.662Z,17.38
2022-10-07T02:04:26.291Z,16.73
2022-10-07T02:05:54.043Z,16.55
2022-10-07T02:07:08.197Z,16.13
2022-10-07T02:08:34.072Z,14.15
2022-10-07T02:09:44.445Z,14.98
2022-10-07T02:10:52.621Z,12.35
2022-10-07T02:12:07.764Z,14.90
2022-10-07T02:13:19.530Z,12.85
2022-10-07T02:14:25.341Z,17.23
2022-10-07T02:15:40.032Z,13.27
2022-10-07T02:16:50.791Z,15.82
2022-10-07T02:18:59.732Z,13.50
2022-10-07T02:20:04.055Z,14.70
2022-10-07T02:21:08.898Z,21.98
2022-10-07T02:22:11.957Z,12.48
2022-10-07T02:23:14.876Z,17.23
2022-10-07T02:24:20.353Z,20.30
2022-10-07T02:25:24.408Z,14.40
2022-10-07T02:26:28.598Z,16.13
2022-10-07T02:27:35.074Z,13.93
2022-10-07T02:28:40.400Z,22.58
2022-10-07T02:29:43.374Z,16.10
2022-10-07T02:30:50.326Z,19.52
2022-10-07T02:31:53.338Z,13.55
2022-10-07T02:32:59.590Z,16.40
2022-10-07T02:34:03.997Z,14.60
2022-10-07T02:35:17.396Z,17.52
2022-10-07T02:36:30.036Z,13.02
2022-10-07T02:37:35.408Z,12.65
2022-10-07T02:38:40.630Z,15.52
2022-10-07T02:39:47.008Z,18.65
2022-10-07T02:41:31.485Z,12.80
2022-10-07T02:42:49.315Z,19.13
2022-10-07T02:44:04.716Z,13.98
2022-10-07T02:45:13.442Z,11.93
2022-10-07T02:46:23.357Z,14.65
2022-10-07T02:47:36.759Z,19.17
2022-10-07T02:48:44.258Z,17.27
2022-10-07T02:49:50.372Z,15.25
2022-10-07T02:50:56.585Z,16.85
2022-10-07T02:52:08.189Z,19.58
2022-10-07T02:53:13.594Z,15.27
2022-10-07T02:54:22.324Z,22.00
2022-10-07T02:55:27.219Z,17.33
2022-10-07T02:56:30.755Z,14.35
2022-10-07T02:57:40.357Z,15.00
2022-10-07T02:58:46.135Z,17.73
2022-10-07T02:59:51.977Z,21.35
2022-10-07T03:01:04.871Z,17.58
2022-10-07T03:02:15.460Z,19.98
2022-10-07T03:03:18.019Z,17.27
2022-10-07T03:04:26.443Z,17.00
2022-10-07T03:05:29.902Z,14.05
2022-10-07T03:06:36.771Z,12.40
2022-10-07T03:07:39.311Z,18.85
2022-10-07T03:08:42.554Z,19.27
2022-10-07T03:09:45.219Z,15.85
2022-10-07T03:10:48.983Z,18.10
2022-10-07T03:11:51.635Z,17.23
2022-10-07T03:12:54.160Z,13.63
2022-10-07T03:13:57.226Z,19.35
2022-10-07T03:14:59.945Z,11.73
2022-10-07T03:16:05.840Z,14.88
2022-10-07T03:17:08.623Z,19.25
2022-10-07T03:18:26.480Z,17.00
2022-10-07T03:20:35.257Z,17.08
2022-10-07T03:21:37.811Z,18.30
2022-10-07T03:22:40.295Z,12.48
2022-10-07T03:23:43.353Z,14.70
2022-10-07T03:24:47.438Z,18.10
2022-10-07T03:25:52.004Z,15.32
2022-10-07T03:26:54.688Z,15.20
2022-10-07T03:27:57.972Z,15.57
2022-10-07T03:29:01.440Z,16.60
2022-10-07T03:30:05.729Z,14.25
2022-10-07T03:31:10.458Z,14.75
2022-10-07T03:32:17.107Z,13.57
2022-10-07T03:33:21.422Z,16.75
2022-10-07T03:34:24.076Z,16.00
2022-10-07T03:35:26.562Z,14.00
2022-10-07T03:36:29.995Z,14.20
2022-10-07T03:37:32.791Z,18.20
2022-10-07T03:38:35.942Z,14.50
2022-10-07T03:39:38.512Z,14.23
2022-10-07T03:40:41.082Z,14.40
2022-10-07T03:41:43.741Z,20.42
2022-10-07T03:42:46.531Z,15.05
2022-10-07T03:43:49.222Z,14.30
2022-10-07T03:44:56.351Z,16.00
2022-10-07T03:46:02.382Z,15.15
2022-10-07T03:47:10.709Z,14.82
2022-10-07T03:48:13.852Z,13.50
2022-10-07T03:49:16.431Z,17.23
2022-10-07T03:50:19.009Z,16.20
2022-10-07T03:51:21.931Z,14.18
2022-10-07T03:52:25.210Z,18.17
2022-10-07T03:53:29.888Z,16.67
2022-10-07T03:54:34.442Z,12.50
2022-10-07T03:55:37.747Z,11.43
2022-10-07T03:56:40.266Z,14.52
2022-10-07T03:57:58.375Z,11.35
2022-10-07T03:59:02.129Z,16.10
2022-10-07T04:00:06.706Z,13.23
2022-10-07T04:01:17.554Z,15.68
2022-10-07T04:02:24.409Z,12.77
2022-10-07T04:03:28.272Z,10.43
2022-10-07T04:04:31.098Z,20.95
2022-10-07T04:05:35.016Z,14.05
2022-10-07T04:06:37.930Z,13.95
2022-10-07T04:07:46.530Z,11.30
2022-10-07T04:08:55.061Z,16.48
2022-10-07T04:09:57.536Z,14.60
2022-10-07T04:11:01.485Z,11.90
2022-10-07T04:12:04.981Z,13.27
2022-10-07T04:13:07.624Z,13.70
2022-10-07T04:14:10.724Z,10.45
2022-10-07T04:15:15.489Z,11.48
2022-10-07T04:16:20.089Z,15.63
2022-10-07T04:17:24.404Z,12.30
2022-10-07T04:18:27.429Z,12.30
2022-10-07T04:19:30.526Z,18.30
2022-10-07T04:20:38.659Z,18.17
2022-10-07T04:21:41.419Z,15.38
2022-10-07T04:22:44.290Z,14.63
2022-10-07T04:23:46.923Z,12.88
2022-10-07T04:25:09.531Z,10.88
2022-10-07T04:26:13.635Z,12.52
2022-10-07T04:27:47.002Z,18.10
2022-10-07T04:28:43.087Z,13.00
2022-10-07T04:29:48.433Z,11.70
2022-10-07T04:30:54.065Z,11.38
2022-10-07T04:32:07.970Z,13.65
2022-10-07T04:33:11.654Z,18.92
2022-10-07T04:34:14.397Z,12.20
2022-10-07T04:35:19.769Z,13.95
2022-10-07T04:36:22.316Z,13.15
2022-10-07T04:37:45.557Z,14.15
2022-10-07T04:38:51.462Z,11.38
2022-10-07T04:40:01.029Z,16.10
2022-10-07T04:41:08.152Z,17.10
2022-10-07T04:42:32.680Z,25.17
2022-10-07T04:43:36.047Z,18.85
2022-10-07T04:44:44.731Z,15.27
2022-10-07T04:45:49.045Z,13.05
2022-10-07T04:46:52.220Z,13.07
2022-10-07T04:47:55.033Z,13.23
2022-10-07T04:48:58.120Z,20.50
2022-10-07T04:50:03.733Z,11.90
2022-10-07T04:51:08.763Z,15.40
2022-10-07T04:52:12.066Z,16.17
2022-10-07T04:53:16.865Z,16.02
2022-10-07T04:54:21.979Z,17.65
2022-10-07T04:55:28.708Z,11.30
2022-10-07T04:56:31.852Z,15.30
2022-10-07T04:57:35.838Z,15.05
2022-10-07T04:58:38.599Z,14.40
2022-10-07T04:59:42.954Z,13.27
2022-10-07T05:00:52.975Z,11.30
2022-10-07T05:01:58.617Z,15.73
2022-10-07T05:03:01.833Z,14.48
2022-10-07T05:04:04.820Z,14.68
2022-10-07T05:05:09.864Z,13.50
2022-10-07T05:06:14.941Z,15.05
2022-10-07T05:07:19.436Z,16.15
2022-10-07T05:08:27.029Z,13.05
2022-10-07T05:09:30.392Z,13.13
2022-10-07T05:10:36.144Z,14.38
2022-10-07T05:11:38.649Z,14.38
2022-10-07T05:12:47.202Z,14.77
2022-10-07T05:13:50.123Z,15.82
2022-10-07T05:14:52.756Z,19.73
2022-10-07T05:15:57.169Z,14.07
2022-10-07T05:17:00.523Z,15.60
2022-10-07T05:18:08.053Z,12.77
2022-10-07T05:19:10.519Z,12.80
2022-10-07T05:20:13.744Z,16.48
2022-10-07T05:21:16.368Z,12.57
2022-10-07T05:22:21.560Z,12.60
2022-10-07T05:23:28.598Z,14.93
2022-10-07T05:24:34.059Z,11.32
2022-10-07T05:25:38.448Z,20.15
2022-10-07T05:26:41.205Z,14.23
2022-10-07T05:27:45.151Z,14.75
2022-10-07T05:28:49.442Z,13.38
2022-10-07T05:29:56.267Z,14.07
2022-10-07T05:31:09.990Z,12.05
2022-10-07T05:32:12.583Z,16.75
2022-10-07T05:33:15.420Z,10.93
2022-10-07T05:34:17.995Z,14.38
2022-10-07T05:35:22.344Z,13.05
2022-10-07T05:36:25.009Z,23.15
2022-10-07T05:37:30.283Z,15.50
2022-10-07T05:38:33.956Z,13.70
2022-10-07T05:39:37.214Z,12.30
2022-10-07T05:40:45.548Z,17.02
2022-10-07T05:41:48.253Z,16.65
2022-10-07T05:42:53.916Z,15.15
2022-10-07T05:43:57.957Z,14.70
2022-10-07T05:45:00.915Z,17.83
2022-10-07T05:46:08.427Z,15.20
2022-10-07T05:47:15.873Z,18.60
2022-10-07T05:48:18.437Z,18.58
2022-10-07T05:49:21.113Z,15.27
2022-10-07T05:50:23.642Z,20.90
2022-10-07T05:51:26.644Z,14.18
2022-10-07T05:52:31.279Z,17.50
2022-10-07T05:53:34.996Z,15.05
2022-10-07T05:54:38.374Z,15.45
2022-10-07T05:55:41.845Z,17.42
2022-10-07T05:56:44.411Z,15.20
2022-10-07T05:57:47.204Z,21.10
2022-10-07T05:58:51.275Z,21.63
2022-10-07T05:59:56.619Z,10.65
2022-10-07T06:01:04.518Z,16.10
2022-10-07T06:02:14.532Z,19.33
2022-10-07T06:03:17.849Z,17.05
2022-10-07T06:04:20.416Z,14.20
2022-10-07T06:05:25.286Z,14.30
2022-10-07T06:06:30.184Z,15.85
2022-10-07T06:07:34.500Z,16.70
2022-10-07T06:08:37.045Z,17.65
2022-10-07T06:09:58.778Z,16.20
2022-10-07T06:11:21.713Z,15.57
2022-10-07T06:12:43.208Z,14.57
2022-10-07T06:13:49.635Z,15.05
2022-10-07T06:14:52.299Z,12.38
2022-10-07T06:15:54.922Z,18.98
2022-10-07T06:16:58.927Z,20.67
2022-10-07T06:18:01.789Z,14.38
2022-10-07T06:19:04.404Z,13.02
2022-10-07T06:20:07.981Z,13.85
2022-10-07T06:21:13.444Z,15.93
2022-10-07T06:22:16.235Z,15.80
2022-10-07T06:23:19.361Z,15.43
2022-10-07T06:24:22.627Z,11.82
2022-10-07T06:25:25.373Z,13.40
2022-10-07T06:26:27.927Z,16.75
2022-10-07T06:27:30.961Z,16.27
2022-10-07T06:28:39.219Z,13.25
2022-10-07T06:29:42.516Z,17.77
2022-10-07T06:30:45.159Z,13.57
2022-10-07T06:31:47.931Z,14.50
2022-10-07T06:32:50.643Z,14.93
2022-10-07T06:33:53.574Z,13.27
2022-10-07T06:34:57.480Z,16.65
2022-10-07T06:36:07.253Z,13.73
2022-10-07T06:37:10.409Z,9.23
2022-10-07T06:38:13.231Z,15.45
2022-10-07T06:39:17.749Z,14.20
2022-10-07T06:40:22.339Z,13.15
2022-10-07T06:41:24.983Z,12.23
2022-10-07T06:42:39.218Z,19.83
2022-10-07T06:44:00.697Z,22.45
2022-10-07T06:45:14.403Z,14.32
2022-10-07T06:46:18.801Z,12.98
2022-10-07T06:47:23.712Z,15.23
2022-10-07T06:48:26.749Z,14.25
2022-10-07T06:49:30.655Z,13.15
2022-10-07T06:50:33.163Z,13.43
2022-10-07T06:51:36.385Z,16.00
2022-10-07T06:52:43.289Z,16.50
2022-10-07T06:53:50.388Z,10.88
2022-10-07T06:54:53.085Z,13.05
2022-10-07T06:55:57.844Z,11.20
2022-10-07T06:57:08.189Z,15.18
2022-10-07T06:58:26.079Z,14.70
2022-10-07T06:59:29.918Z,10.45
2022-10-07T07:00:41.269Z,12.30
2022-10-07T07:01:43.876Z,11.07
2022-10-07T07:02:46.608Z,9.02
2022-10-07T07:03:49.877Z,11.80
2022-10-07T07:04:57.266Z,12.02
2022-10-07T07:06:00.404Z,15.48
2022-10-07T07:07:07.507Z,15.40
2022-10-07T07:08:10.193Z,9.45
2022-10-07T07:09:12.848Z,15.63
2022-10-07T07:10:17.914Z,14.10
2022-10-07T07:11:37.136Z,11.07
2022-10-07T07:12:49.318Z,9.52
2022-10-07T07:13:53.231Z,10.07
2022-10-07T07:14:55.860Z,8.57
2022-10-07T07:16:00.280Z,12.38
2022-10-07T07:17:06.483Z,15.77
2022-10-07T07:18:10.148Z,14.25
2022-10-07T07:19:14.548Z,11.02
2022-10-07T07:20:18.065Z,7.22
2022-10-07T07:21:20.935Z,10.38
2022-10-07T07:22:23.925Z,8.40
2022-10-07T07:23:28.379Z,11.32
2022-10-07T07:24:30.941Z,15.15
2022-10-07T07:25:38.075Z,10.75
2022-10-07T07:26:41.992Z,10.88
2022-10-07T07:27:53.861Z,8.98
2022-10-07T07:29:04.828Z,13.77
2022-10-07T07:30:13.839Z,8.85
2022-10-07T07:31:17.951Z,7.72
2022-10-07T07:32:20.610Z,12.50
2022-10-07T07:33:23.376Z,11.38
2022-10-07T07:34:25.965Z,13.25
2022-10-07T07:35:32.862Z,7.32
2022-10-07T07:36:36.394Z,7.00
2022-10-07T07:37:38.941Z,10.90
2022-10-07T07:38:51.318Z,12.95
2022-10-07T07:39:53.919Z,8.48
2022-10-07T07:40:57.687Z,8.38
2022-10-07T07:42:00.603Z,12.70
2022-10-07T07:43:04.508Z,7.57
2022-10-07T07:44:11.455Z,6.70
2022-10-07T07:45:16.194Z,9.27
2022-10-07T07:46:20.155Z,8.82
2022-10-07T07:47:22.726Z,8.48
2022-10-07T07:48:25.954Z,9.23
2022-10-07T07:49:31.857Z,9.73
2022-10-07T07:50:34.763Z,12.40
2022-10-07T07:51:37.992Z,7.40
2022-10-07T07:52:40.609Z,5.50
2022-10-07T07:53:44.127Z,5.88
2022-10-07T07:54:47.933Z,10.40
2022-10-07T07:55:57.851Z,8.98
2022-10-07T07:57:02.367Z,13.18
2022-10-07T07:58:11.747Z,10.93
2022-10-07T07:59:15.778Z,10.98
2022-10-07T08:00:19.085Z,9.18
2022-10-07T08:01:32.659Z,10.25
2022-10-07T08:02:35.200Z,9.20
2022-10-07T08:03:38.043Z,10.90
2022-10-07T08:04:41.544Z,7.57
2022-10-07T08:05:44.867Z,9.38
2022-10-07T08:06:47.684Z,6.43
2022-10-07T08:07:52.888Z,7.72
2022-10-07T08:08:59.362Z,5.10
2022-10-07T08:10:02.709Z,10.38
2022-10-07T08:11:14.431Z,10.23
2022-10-07T08:12:17.712Z,6.90
2022-10-07T08:13:20.872Z,5.60
2022-10-07T08:14:23.740Z,7.85
2022-10-07T08:15:28.516Z,9.35
2022-10-07T08:16:31.443Z,7.10
2022-10-07T08:17:36.029Z,7.82
2022-10-07T08:18:41.695Z,7.65
2022-10-07T08:19:44.522Z,6.13
2022-10-07T08:20:59.448Z,5.05
2022-10-07T08:22:02.945Z,5.72
2022-10-07T08:23:06.889Z,4.22
2022-10-07T08:24:12.385Z,5.40
2022-10-07T08:25:16.211Z,5.70
2022-10-07T08:26:19.352Z,5.60
2022-10-07T08:27:22.023Z,5.47
2022-10-07T08:28:25.540Z,6.55
2022-10-07T08:29:30.346Z,5.68
2022-10-07T08:30:34.466Z,4.93
2022-10-07T08:31:37.448Z,7.90
2022-10-07T08:32:40.563Z,6.53
2022-10-07T08:33:45.257Z,5.63
2022-10-07T08:34:47.711Z,6.45
2022-10-07T08:35:51.987Z,7.28
2022-10-07T08:36:56.229Z,4.20
2022-10-07T08:37:58.697Z,5.30
2022-10-07T08:39:02.173Z,5.70
2022-10-07T08:40:05.263Z,6.78
2022-10-07T08:41:10.508Z,5.28
2022-10-07T08:42:20.592Z,3.92
2022-10-07T08:43:24.361Z,4.78
2022-10-07T08:44:36.011Z,6.50
2022-10-07T08:45:38.510Z,4.65
2022-10-07T08:46:57.720Z,4.32
2022-10-07T08:48:03.971Z,8.02
2022-10-07T08:49:14.640Z,5.15
2022-10-07T08:50:28.089Z,4.15
2022-10-07T08:51:41.204Z,3.88
2022-10-07T08:53:02.073Z,6.00
2022-10-07T08:54:05.443Z,2.47
2022-10-07T08:55:41.619Z,5.38
2022-10-07T08:56:44.416Z,3.90
2022-10-07T08:58:23.098Z,3.65
2022-10-07T08:59:33.547Z,5.25
2022-10-07T09:00:46.543Z,4.25
2022-10-07T09:01:49.267Z,4.85
2022-10-07T09:03:07.531Z,3.28
2022-10-07T09:04:44.209Z,3.55
2022-10-07T09:05:49.684Z,5.32
2022-10-07T09:07:20.100Z,4.53
2022-10-07T09:08:28.588Z,4.63
2022-10-07T09:09:31.201Z,3.67
2022-10-07T09:10:38.542Z,3.95
2022-10-07T09:11:42.417Z,3.00
2022-10-07T09:12:49.843Z,3.08
2022-10-07T09:14:03.067Z,3.25
2022-10-07T09:15:36.175Z,3.60
2022-10-07T09:16:43.233Z,3.13
2022-10-07T09:17:53.975Z,5.38
2022-10-07T09:19:00.181Z,2.45
2022-10-07T09:20:09.399Z,2.63
2022-10-07T09:21:25.628Z,3.83
2022-10-07T09:22:34.910Z,2.97
2022-10-07T09:23:39.025Z,2.17
2022-10-07T09:25:51.839Z,3.63
2022-10-07T09:26:59.190Z,3.30
2022-10-07T09:28:01.794Z,2.10
2022-10-07T09:29:04.390Z,3.88
2022-10-07T09:30:07.294Z,2.92
2022-10-07T09:31:14.841Z,2.75
2022-10-07T09:32:18.860Z,4.75
2022-10-07T09:33:23.313Z,5.18
2022-10-07T09:34:29.034Z,2.42
2022-10-07T09:35:31.988Z,5.13
2022-10-07T09:36:37.540Z,1.48
2022-10-07T09:37:58.146Z,2.03
2022-10-07T09:39:16.941Z,5.78
2022-10-07T09:40:22.805Z,1.83
2022-10-07T09:41:36.077Z,2.47
2022-10-07T09:42:43.254Z,2.80
2022-10-07T09:43:57.638Z,5.00
2022-10-07T09:45:18.721Z,2.00
2022-10-07T09:46:46.612Z,1.73
2022-10-07T09:47:53.749Z,6.97
2022-10-07T09:48:56.499Z,1.98
2022-10-07T09:49:59.927Z,2.17
2022-10-07T09:51:15.456Z,2.08
2022-10-07T09:52:24.049Z,3.85
2022-10-07T09:53:33.348Z,5.32
2022-10-07T09:54:36.629Z,2.30
2022-10-07T09:55:41.092Z,6.80
2022-10-07T09:56:45.732Z,5.35
2022-10-07T09:58:00.789Z,2.35
2022-10-07T09:59:23.571Z,2.33
2022-10-07T10:00:27.260Z,2.50
2022-10-07T10:01:31.113Z,5.72
2022-10-07T10:02:34.132Z,1.70
2022-10-07T10:03:38.109Z,4.40
2022-10-07T10:04:52.638Z,3.88
2022-10-07T10:05:59.541Z,4.57
2022-10-07T10:07:06.427Z,3.03
2022-10-07T10:08:17.723Z,2.35
2022-10-07T10:09:23.105Z,1.38
2022-10-07T10:10:31.588Z,4.85
2022-10-07T10:11:34.183Z,1.48
2022-10-07T10:12:45.543Z,4.05
2022-10-07T10:13:50.467Z,2.40
2022-10-07T10:15:00.524Z,1.52
2022-10-07T10:16:05.817Z,2.60
2022-10-07T10:17:30.979Z,4.00
2022-10-07T10:18:34.936Z,1.92
2022-10-07T10:19:37.635Z,1.10
2022-10-07T10:20:46.429Z,1.77
2022-10-07T10:21:56.386Z,2.83
2022-10-07T10:23:01.240Z,4.65
2022-10-07T10:24:12.102Z,3.10
2022-10-07T10:25:33.624Z,2.15
2022-10-07T10:26:56.621Z,2.42
2022-10-07T10:28:13.516Z,3.10
2022-10-07T10:29:38.001Z,2.55
2022-10-07T10:30:54.871Z,2.92
2022-10-07T10:32:20.359Z,1.73
2022-10-07T10:33:30.395Z,7.15
2022-10-07T10:35:50.543Z,1.92
2022-10-07T10:37:00.723Z,1.50
2022-10-07T10:38:18.988Z,2.20
2022-10-07T10:39:40.713Z,2.83
2022-10-07T10:40:57.591Z,6.35
2022-10-07T10:42:03.053Z,6.15
2022-10-07T10:43:24.755Z,1.45
2022-10-07T10:44:34.058Z,2.33
2022-10-07T10:46:13.611Z,4.60
2022-10-07T10:47:37.133Z,6.07
2022-10-07T10:48:42.588Z,2.80
2022-10-07T10:49:45.481Z,1.33
2022-10-07T10:50:58.155Z,3.40
2022-10-07T10:52:02.958Z,3.92
2022-10-07T10:53:32.145Z,2.67
2022-10-07T10:54:54.079Z,3.03
2022-10-07T10:56:23.492Z,6.50
2022-10-07T10:58:00.667Z,2.25
2022-10-07T10:59:25.114Z,4.10
2022-10-07T11:00:37.816Z,1.35
2022-10-07T11:01:43.033Z,2.80
2022-10-07T11:02:52.509Z,3.33
2022-10-07T11:04:19.211Z,4.03
2022-10-07T11:05:26.776Z,3.35
2022-10-07T11:06:30.954Z,3.72
2022-10-07T11:07:37.260Z,6.45
2022-10-07T11:08:39.773Z,5.65
2022-10-07T11:09:46.823Z,1.50
2022-10-07T11:11:12.239Z,8.43
2022-10-07T11:12:23.760Z,3.72
2022-10-07T11:13:44.089Z,11.68
2022-10-07T11:14:53.435Z,1.88
2022-10-07T11:16:10.137Z,1.67
2022-10-07T11:17:14.014Z,2.40
2022-10-07T11:18:30.954Z,3.30
2022-10-07T11:19:43.299Z,1.65
2022-10-07T11:20:48.486Z,2.38
2022-10-07T11:21:55.404Z,3.22
2022-10-07T11:23:04.389Z,1.17
2022-10-07T11:24:16.855Z,5.45
2022-10-07T11:25:28.807Z,2.38
2022-10-07T11:26:37.697Z,2.45
2022-10-07T11:27:42.910Z,7.25
2022-10-07T11:28:46.927Z,2.20
2022-10-07T11:30:03.686Z,2.63
2022-10-07T11:31:26.933Z,0.93
2022-10-07T11:32:55.847Z,4.38
2022-10-07T11:34:17.461Z,4.45
2022-10-07T11:35:33.133Z,3.13
2022-10-07T11:37:22.005Z,2.50
2022-10-07T11:38:33.814Z,2.70
2022-10-07T11:39:39.820Z,1.55
2022-10-07T11:41:02.602Z,2.30
2022-10-07T11:42:18.850Z,4.90
2022-10-07T11:43:35.752Z,1.30
2022-10-07T11:44:51.325Z,2.80
2022-10-07T11:46:11.309Z,2.85
2022-10-07T11:48:27.226Z,2.05
2022-10-07T11:49:39.586Z,0.88
2022-10-07T11:50:55.823Z,3.92
2022-10-07T11:52:12.005Z,3.47
2022-10-07T11:53:24.105Z,3.00
2022-10-07T11:54:29.940Z,5.50
2022-10-07T11:55:40.792Z,3.22
2022-10-07T11:56:51.696Z,4.65
2022-10-07T11:57:59.006Z,1.35
2022-10-07T11:59:04.206Z,4.78
2022-10-07T12:00:32.437Z,6.40
2022-10-07T12:01:35.161Z,1.55
2022-10-07T12:02:42.091Z,4.35
2022-10-07T12:03:47.656Z,4.22
2022-10-07T12:04:50.192Z,3.80
2022-10-07T12:05:56.072Z,1.52
2022-10-07T12:07:35.238Z,2.85
2022-10-07T12:08:42.049Z,4.18
2022-10-07T12:09:59.550Z,5.28
2022-10-07T12:11:11.493Z,2.20
2022-10-07T12:12:14.322Z,2.90
2022-10-07T12:13:18.034Z,4.80
2022-10-07T12:14:34.312Z,5.43
2022-10-07T12:15:44.879Z,4.95
2022-10-07T12:16:55.301Z,2.28
2022-10-07T12:18:04.273Z,1.45
2022-10-07T12:19:06.953Z,2.60
2022-10-07T12:20:34.665Z,8.93
2022-10-07T12:22:05.713Z,4.30
2022-10-07T12:23:20.476Z,1.45
2022-10-07T12:24:27.184Z,2.65
2022-10-07T12:25:42.485Z,7.75
2022-10-07T12:26:46.167Z,1.58
2022-10-07T12:27:49.519Z,4.20
2022-10-07T12:28:52.433Z,3.55
2022-10-07T12:30:04.054Z,7.53
2022-10-07T12:31:15.738Z,2.63
2022-10-07T12:32:40.092Z,1.35
2022-10-07T12:33:45.898Z,1.70
2022-10-07T12:34:48.452Z,3.58
2022-10-07T12:35:54.294Z,2.42
2022-10-07T12:37:36.250Z,2.97
2022-10-07T12:38:38.859Z,3.20
2022-10-07T12:39:41.489Z,5.20
2022-10-07T12:40:48.669Z,5.97
2022-10-07T12:41:51.841Z,2.97
2022-10-07T12:43:26.482Z,2.10
2022-10-07T12:44:36.190Z,1.67
2022-10-07T12:45:41.180Z,5.63
2022-10-07T12:46:51.660Z,4.50
2022-10-07T12:47:57.065Z,4.18
2022-10-07T12:49:19.228Z,4.07
2022-10-07T12:50:23.097Z,3.47
2022-10-07T12:51:29.602Z,2.83
2022-10-07T12:52:52.248Z,3.22
2022-10-07T12:53:57.036Z,2.58
2022-10-07T12:55:03.534Z,3.72
2022-10-07T12:56:06.637Z,9.40
2022-10-07T12:57:13.613Z,3.38
2022-10-07T12:59:06.478Z,3.65
2022-10-07T13:00:16.951Z,5.80
2022-10-07T13:02:00.422Z,4.13
2022-10-07T13:03:27.956Z,4.93
2022-10-07T13:04:54.904Z,2.78
2022-10-07T13:06:12.223Z,2.70
2022-10-07T13:07:37.289Z,2.40
2022-10-07T13:09:19.720Z,1.83
2022-10-07T13:10:46.587Z,4.82
2022-10-07T13:12:39.954Z,2.50
2022-10-07T13:13:53.902Z,1.40
2022-10-07T13:15:14.634Z,4.05
2022-10-07T13:17:46.659Z,1.75
2022-10-07T13:19:04.813Z,4.45
2022-10-07T13:20:22.830Z,2.20
2022-10-07T13:21:36.604Z,7.07
2022-10-07T13:22:46.763Z,4.00
2022-10-07T13:23:53.698Z,2.70
2022-10-07T13:24:57.764Z,5.63
2022-10-07T13:26:03.545Z,3.42
2022-10-07T13:27:09.297Z,1.70
2022-10-07T13:28:17.106Z,2.85
2022-10-07T13:29:24.482Z,2.92
2022-10-07T13:30:36.304Z,4.50
2022-10-07T13:31:39.176Z,4.15
2022-10-07T13:32:41.910Z,2.75
2022-10-07T13:33:44.516Z,4.85
2022-10-07T13:34:47.210Z,7.93
2022-10-07T13:35:51.068Z,2.08
2022-10-07T13:36:53.637Z,6.18
2022-10-07T13:37:56.346Z,2.15
2022-10-07T13:39:13.432Z,2.17
2022-10-07T13:40:33.896Z,2.97
2022-10-07T13:41:37.184Z,1.75
2022-10-07T13:42:39.721Z,4.32
2022-10-07T13:43:44.323Z,4.13
2022-10-07T13:44:47.072Z,3.40
2022-10-07T13:45:49.632Z,3.22
2022-10-07T13:47:03.603Z,4.38
2022-10-07T13:48:06.140Z,2.80
2022-10-07T13:49:21.415Z,3.45
2022-10-07T13:50:32.522Z,4.60
2022-10-07T13:51:37.256Z,3.72
2022-10-07T13:52:47.194Z,4.38
2022-10-07T13:53:58.786Z,5.25
2022-10-07T13:55:01.417Z,1.48
2022-10-07T13:56:20.853Z,1.98
2022-10-07T13:57:23.720Z,2.28
2022-10-07T13:58:26.812Z,3.38
2022-10-07T13:59:29.697Z,3.50
2022-10-07T14:00:34.052Z,6.28
2022-10-07T14:01:38.164Z,2.58
2022-10-07T14:02:41.436Z,5.80
2022-10-07T14:04:03.855Z,4.35
2022-10-07T14:05:45.941Z,4.00
2022-10-07T14:07:09.360Z,3.15
2022-10-07T14:08:16.437Z,4.22
2022-10-07T14:09:36.701Z,3.85
2022-10-07T14:10:53.718Z,2.33
2022-10-07T14:12:01.035Z,2.78
2022-10-07T14:13:08.246Z,2.28
2022-10-07T14:14:27.765Z,5.15
2022-10-07T14:15:32.111Z,4.28
2022-10-07T14:16:34.973Z,2.63
2022-10-07T14:17:55.830Z,4.75
2022-10-07T14:20:06.623Z,2.78
2022-10-07T14:21:17.154Z,1.77
2022-10-07T14:22:36.092Z,2.72
2022-10-07T14:23:38.844Z,6.47
2022-10-07T14:24:41.822Z,3.65
2022-10-07T14:25:47.286Z,7.28
2022-10-07T14:26:49.952Z,6.15
2022-10-07T14:27:55.617Z,2.20
2022-10-07T14:28:58.083Z,2.70
2022-10-07T14:30:01.463Z,1.42
2022-10-07T14:31:25.751Z,4.80
2022-10-07T14:32:47.228Z,3.55
2022-10-07T14:34:13.346Z,6.80
2022-10-07T14:35:20.315Z,2.13
2022-10-07T14:36:23.268Z,3.03
2022-10-07T14:37:29.753Z,6.80
2022-10-07T14:38:34.497Z,5.22
2022-10-07T14:39:37.027Z,5.28
2022-10-07T14:40:39.500Z,4.05
2022-10-07T14:41:42.035Z,6.10
2022-10-07T14:42:45.262Z,2.47
2022-10-07T14:43:49.357Z,5.65
2022-10-07T14:44:56.152Z,3.05
2022-10-07T14:46:06.734Z,2.97
2022-10-07T14:47:16.291Z,3.83
2022-10-07T14:48:18.804Z,6.05
2022-10-07T14:49:21.365Z,11.10
2022-10-07T14:50:23.944Z,14.55
2022-10-07T14:51:29.573Z,10.75
2022-10-07T14:52:44.552Z,9.00
2022-10-07T14:53:50.599Z,4.63
2022-10-07T14:54:53.230Z,6.82
2022-10-07T14:55:56.185Z,5.47
2022-10-07T14:56:59.007Z,6.90
2022-10-07T14:58:01.471Z,7.10
2022-10-07T14:59:04.036Z,8.07
2022-10-07T15:00:20.231Z,3.53
2022-10-07T15:01:23.767Z,2.60
2022-10-07T15:02:26.740Z,7.82
2022-10-07T15:03:30.885Z,7.75
2022-10-07T15:04:33.692Z,3.22